createdAt,value
2023-04-02T00:02:13.846Z,9.90
2023-04-02T00:05:11.506Z,9.90
2023-04-02T00:08:10.197Z,9.90
2023-04-02T00:11:07.971Z,9.90
2023-04-02T00:14:06.103Z,9.90
2023-04-02T00:17:03.535Z,9.90
2023-04-02T00:20:01.399Z,9.90
2023-04-02T00:22:58.837Z,9.90
2023-04-02T00:25:56.577Z,9.90
2023-04-02T00:28:54.038Z,9.90
2023-04-02T00:31:51.840Z,9.90
2023-04-02T00:34:49.631Z,9.88
2023-04-02T00:37:47.084Z,9.80
2023-04-02T00:40:44.694Z,9.80
2023-04-02T00:43:44.654Z,9.80
2023-04-02T00:46:47.532Z,9.78
2023-04-02T00:49:44.978Z,9.72
2023-04-02T00:52:42.633Z,9.70
2023-04-02T00:55:40.403Z,9.70
2023-04-02T00:58:37.894Z,9.70
2023-04-02T01:01:36.837Z,9.70
2023-04-02T01:04:34.796Z,9.60
2023-04-02T01:07:32.731Z,9.60
2023-04-02T01:10:30.195Z,9.60
2023-04-02T01:13:27.925Z,9.60
2023-04-02T01:16:26.127Z,9.60
2023-04-02T01:19:23.590Z,9.58
2023-04-02T01:22:21.175Z,9.54
2023-04-02T01:25:18.937Z,9.50
2023-04-02T01:28:19.881Z,9.50
2023-04-02T01:31:17.698Z,9.50
2023-04-02T01:34:15.481Z,9.50
2023-04-02T01:37:13.222Z,9.50
2023-04-02T01:40:11.432Z,9.50
2023-04-02T01:43:09.120Z,9.50
2023-04-02T01:46:06.591Z,9.50
2023-04-02T01:49:04.222Z,9.50
2023-04-02T01:52:01.659Z,9.50
2023-04-02T01:55:00.054Z,9.52
2023-04-02T01:57:57.685Z,9.60
2023-04-02T02:00:55.132Z,9.60
2023-04-02T02:03:52.881Z,9.60
2023-04-02T02:06:50.449Z,9.60
2023-04-02T02:09:48.047Z,9.58
2023-04-02T02:12:46.132Z,9.60
2023-04-02T02:15:43.575Z,9.60
2023-04-02T02:18:41.364Z,9.60
2023-04-02T02:21:38.821Z,9.60
2023-04-02T02:24:37.821Z,9.64
2023-04-02T02:27:35.612Z,9.60
2023-04-02T02:30:33.266Z,9.60
2023-04-02T02:33:30.707Z,9.60
2023-04-02T02:36:28.994Z,9.60
2023-04-02T02:39:28.473Z,9.60
2023-04-02T02:42:26.003Z,9.60
2023-04-02T02:45:23.709Z,9.60
2023-04-02T02:48:21.177Z,9.60
2023-04-02T02:51:18.939Z,9.58
2023-04-02T02:54:16.800Z,9.50
2023-04-02T02:57:14.316Z,9.42
2023-04-02T03:00:13.260Z,9.40
2023-04-02T03:03:10.845Z,9.38
2023-04-02T03:06:08.922Z,9.30
2023-04-02T03:09:06.438Z,9.30
2023-04-02T03:12:04.372Z,9.22
2023-04-02T03:15:03.005Z,9.20
2023-04-02T03:18:00.639Z,9.20
2023-04-02T03:20:58.289Z,9.20
2023-04-02T03:23:55.750Z,9.20
2023-04-02T03:26:53.496Z,9.20
2023-04-02T03:29:51.989Z,9.20
2023-04-02T03:32:49.644Z,9.16
2023-04-02T03:35:47.146Z,9.20
2023-04-02T03:38:44.869Z,9.20
2023-04-02T03:41:42.528Z,9.16
2023-04-02T03:44:39.995Z,9.14
2023-04-02T03:47:38.291Z,9.14
2023-04-02T03:50:35.866Z,9.12
2023-04-02T03:53:33.486Z,9.16
2023-04-02T03:56:31.717Z,9.10
2023-04-02T03:59:29.421Z,9.10
2023-04-02T04:02:27.350Z,9.10
2023-04-02T04:05:24.985Z,9.10
2023-04-02T04:08:22.648Z,9.10
2023-04-02T04:11:20.294Z,9.10
2023-04-02T04:14:18.075Z,9.10
2023-04-02T04:17:16.130Z,9.10
2023-04-02T04:20:13.618Z,9.10
2023-04-02T04:23:11.307Z,9.12
2023-04-02T04:26:10.635Z,9.20
2023-04-02T04:29:10.062Z,9.20
2023-04-02T04:32:07.577Z,9.20
2023-04-02T04:35:06.648Z,9.20
2023-04-02T04:38:04.281Z,9.20
2023-04-02T04:41:01.719Z,9.20
2023-04-02T04:43:59.522Z,9.22
2023-04-02T04:46:56.957Z,9.28
2023-04-02T04:49:54.652Z,9.30
2023-04-02T04:52:52.136Z,9.30
2023-04-02T04:55:49.881Z,9.30
2023-04-02T04:58:47.343Z,9.30
2023-04-02T05:01:45.437Z,9.36
2023-04-02T05:04:43.118Z,9.40
2023-04-02T05:07:40.603Z,9.40
2023-04-02T05:10:38.327Z,9.40
2023-04-02T05:13:35.849Z,9.40
2023-04-02T05:16:33.618Z,9.44
2023-04-02T05:19:31.207Z,9.44
2023-04-02T05:22:28.966Z,9.50
2023-04-02T05:25:26.728Z,9.50
2023-04-02T05:28:24.159Z,9.50
2023-04-02T05:31:21.897Z,9.50
2023-04-02T05:34:19.363Z,9.50
2023-04-02T05:37:18.194Z,9.50
2023-04-02T05:40:15.635Z,9.60
2023-04-02T05:43:13.449Z,9.60
2023-04-02T05:46:10.905Z,9.60
2023-04-02T05:49:08.764Z,9.60
2023-04-02T05:52:06.641Z,9.60
2023-04-02T05:55:04.091Z,9.60
2023-04-02T06:01:04.842Z,9.70
2023-04-02T06:04:02.467Z,9.70
2023-04-02T06:07:00.107Z,9.70
2023-04-02T06:09:57.530Z,9.74
2023-04-02T06:12:55.296Z,9.80
2023-04-02T06:15:52.764Z,9.90
2023-04-02T06:18:50.428Z,9.90
2023-04-02T06:21:49.963Z,9.90
2023-04-02T06:24:47.741Z,9.90
2023-04-02T06:27:45.453Z,9.98
2023-04-02T06:30:42.950Z,10.00
2023-04-02T06:33:40.823Z,10.02
2023-04-02T06:36:38.269Z,10.10
2023-04-02T06:39:36.062Z,10.16
2023-04-02T06:42:33.817Z,10.20
2023-04-02T06:45:31.286Z,10.30
2023-04-02T06:48:28.955Z,10.42
2023-04-02T06:51:26.405Z,10.60
2023-04-02T06:54:24.155Z,10.80
2023-04-02T06:57:21.729Z,11.00
2023-04-02T07:00:21.229Z,11.10
2023-04-02T07:03:18.690Z,11.20
2023-04-02T07:06:16.386Z,11.40
2023-04-02T07:09:14.043Z,11.70
2023-04-02T07:12:11.500Z,12.10
2023-04-02T07:15:09.250Z,12.34
2023-04-02T07:18:07.067Z,12.60
2023-04-02T07:21:04.866Z,12.70
2023-04-02T07:24:02.488Z,12.80
2023-04-02T07:26:59.946Z,12.70
2023-04-02T07:29:57.580Z,12.70
2023-04-02T07:32:55.027Z,12.70
2023-04-02T07:35:54.252Z,12.70
2023-04-02T07:38:51.816Z,12.80
2023-04-02T07:41:49.506Z,12.88
2023-04-02T07:44:47.112Z,13.00
2023-04-02T07:47:44.597Z,13.10
2023-04-02T07:50:42.332Z,13.20
2023-04-02T07:53:41.886Z,13.20
2023-04-02T07:56:39.644Z,13.10
2023-04-02T07:59:37.093Z,13.20
2023-04-02T08:02:34.887Z,13.30
2023-04-02T08:05:32.578Z,13.26
2023-04-02T08:08:30.414Z,13.10
2023-04-02T08:11:29.655Z,13.10
2023-04-02T08:14:28.708Z,13.20
2023-04-02T08:17:26.592Z,13.32
2023-04-02T08:20:24.708Z,13.50
2023-04-02T08:23:22.787Z,13.60
2023-04-02T08:26:20.217Z,13.60
2023-04-02T08:29:17.908Z,13.50
2023-04-02T08:32:16.084Z,13.30
2023-04-02T08:35:13.515Z,13.20
2023-04-02T08:38:11.312Z,13.10
2023-04-02T08:41:08.767Z,13.10
2023-04-02T08:44:07.485Z,13.00
2023-04-02T08:47:04.932Z,12.88
2023-04-02T08:50:02.561Z,12.70
2023-04-02T08:53:00.203Z,12.60
2023-04-02T08:56:00.031Z,12.50
2023-04-02T08:58:58.062Z,12.30
2023-04-02T09:01:55.665Z,12.20
2023-04-02T09:04:53.532Z,12.20
2023-04-02T09:07:51.042Z,12.12
2023-04-02T09:10:48.822Z,12.10
2023-04-02T09:13:46.807Z,12.00
2023-04-02T09:16:44.276Z,11.96
2023-04-02T09:19:42.587Z,11.90
2023-04-02T09:22:40.137Z,11.82
2023-04-02T09:25:38.114Z,11.70
2023-04-02T09:28:35.800Z,11.68
2023-04-02T09:31:33.514Z,11.60
2023-04-02T09:34:31.157Z,11.50
2023-04-02T09:37:29.553Z,11.50
2023-04-02T09:40:27.617Z,11.50
2023-04-02T09:43:25.074Z,11.52
2023-04-02T09:46:22.714Z,11.60
2023-04-02T09:49:20.146Z,11.70
2023-04-02T09:52:17.960Z,11.70
2023-04-02T09:55:15.703Z,11.80
2023-04-02T09:58:13.158Z,11.90
2023-04-02T10:01:11.285Z,11.90
2023-04-02T10:04:08.763Z,11.80
2023-04-02T10:07:06.734Z,11.86
2023-04-02T10:10:04.566Z,12.26
2023-04-02T10:13:02.378Z,12.98
2023-04-02T10:16:00.400Z,13.80
2023-04-02T10:18:58.597Z,14.40
2023-04-02T10:21:56.957Z,14.98
2023-04-02T10:24:54.405Z,15.38
2023-04-02T10:27:52.319Z,15.70
2023-04-02T10:30:50.124Z,16.40
2023-04-02T10:33:47.940Z,17.96
2023-04-02T10:36:46.800Z,18.60
2023-04-02T10:39:44.397Z,18.40
2023-04-02T10:42:42.457Z,17.90
2023-04-02T10:45:39.903Z,17.52
2023-04-02T10:48:37.664Z,17.82
2023-04-02T10:51:35.116Z,18.10
2023-04-02T10:54:33.645Z,18.00
2023-04-02T10:57:31.548Z,17.80
2023-04-02T11:00:29.462Z,17.40
2023-04-02T11:03:27.265Z,16.90
2023-04-02T11:06:24.826Z,16.50
2023-04-02T11:09:22.566Z,16.30
2023-04-02T11:12:20.021Z,16.28
2023-04-02T11:15:18.103Z,16.02
2023-04-02T11:18:15.553Z,15.64
2023-04-02T11:21:13.175Z,15.20
2023-04-02T11:24:10.994Z,14.84
2023-04-02T11:27:08.496Z,14.50
2023-04-02T11:30:06.682Z,14.20
2023-04-02T11:33:04.379Z,13.90
2023-04-02T11:36:02.468Z,13.80
2023-04-02T11:39:07.634Z,13.80
2023-04-02T11:42:14.708Z,13.80
2023-04-02T11:45:12.848Z,13.80
2023-04-02T11:48:10.395Z,13.80
2023-04-02T11:51:08.403Z,13.80
2023-04-02T11:54:06.152Z,13.88
2023-04-02T11:57:06.133Z,13.80
2023-04-02T12:00:05.433Z,13.72
2023-04-02T12:03:04.839Z,13.58
2023-04-02T12:06:04.132Z,13.32
2023-04-02T12:09:05.277Z,13.10
2023-04-02T12:12:03.821Z,12.90
2023-04-02T12:15:01.274Z,12.68
2023-04-02T12:17:59.450Z,12.50
2023-04-02T12:20:57.254Z,12.40
2023-04-02T12:23:55.099Z,12.30
2023-04-02T12:26:54.578Z,12.18
2023-04-02T12:29:52.372Z,12.00
2023-04-02T12:32:51.167Z,11.80
2023-04-02T12:35:49.117Z,11.60
2023-04-02T12:38:47.311Z,11.50
2023-04-02T12:41:44.793Z,11.34
2023-04-02T12:44:42.565Z,11.20
2023-04-02T12:47:40.639Z,11.10
2023-04-02T12:50:38.972Z,11.00
2023-04-02T12:53:36.816Z,11.00
2023-04-02T12:56:34.291Z,11.00
2023-04-02T12:59:34.154Z,10.90
2023-04-02T13:02:31.865Z,10.90
2023-04-02T13:05:32.617Z,10.90
2023-04-02T13:08:31.030Z,10.90
2023-04-02T13:11:28.467Z,10.90
2023-04-02T13:14:26.261Z,10.90
2023-04-02T13:17:23.711Z,10.90
2023-04-02T13:20:21.378Z,10.90
2023-04-02T13:23:19.084Z,10.80
2023-04-02T13:26:17.661Z,10.70
2023-04-02T13:29:15.620Z,10.66
2023-04-02T13:32:13.513Z,10.60
2023-04-02T13:35:11.740Z,10.54
2023-04-02T13:38:09.511Z,10.54
2023-04-02T13:41:07.332Z,10.56
2023-04-02T13:44:04.904Z,10.60
2023-04-02T13:47:02.936Z,10.60
2023-04-02T13:50:00.701Z,10.50
2023-04-02T13:52:58.634Z,10.40
2023-04-02T13:55:56.924Z,10.30
2023-04-02T13:58:54.441Z,10.40
2023-04-02T14:01:52.944Z,10.40
2023-04-02T14:04:51.169Z,10.40
2023-04-02T14:07:50.938Z,10.50
2023-04-02T14:10:48.658Z,10.66
2023-04-02T14:13:46.913Z,10.80
2023-04-02T14:16:44.693Z,10.90
2023-04-02T14:19:42.666Z,11.00
2023-04-02T14:22:40.809Z,10.90
2023-04-02T14:25:38.844Z,10.80
2023-04-02T14:28:39.557Z,10.70
2023-04-02T14:31:38.263Z,10.60
2023-04-02T14:34:36.180Z,10.50
2023-04-02T14:37:34.415Z,10.40
2023-04-02T14:40:32.657Z,10.28
2023-04-02T14:43:30.334Z,10.20
2023-04-02T14:46:27.845Z,10.10
2023-04-02T14:49:25.780Z,10.00
2023-04-02T14:52:24.005Z,9.90
2023-04-02T14:55:24.450Z,9.90
2023-04-02T14:58:23.363Z,9.84
2023-04-02T15:01:23.025Z,9.80
2023-04-02T15:04:22.078Z,9.70
2023-04-02T15:07:20.382Z,9.70
2023-04-02T15:10:18.852Z,9.60
2023-04-02T15:13:17.251Z,9.60
2023-04-02T15:16:15.564Z,9.60
2023-04-02T15:19:13.464Z,9.60
2023-04-02T15:22:12.378Z,9.70
2023-04-02T15:25:10.504Z,9.70
2023-04-02T15:28:09.040Z,9.72
2023-04-02T15:31:07.802Z,9.80
2023-04-02T15:34:07.602Z,9.90
2023-04-02T15:37:06.028Z,9.88
2023-04-02T15:40:05.764Z,9.80
2023-04-02T15:43:04.846Z,9.80
2023-04-02T15:46:04.078Z,9.80
2023-04-02T15:49:02.084Z,9.78
2023-04-02T15:52:01.027Z,9.70
2023-04-02T15:55:00.013Z,9.70
2023-04-02T15:57:58.998Z,9.70
2023-04-02T16:00:59.233Z,9.60
2023-04-02T16:03:57.300Z,9.50
2023-04-02T16:06:55.313Z,9.50
2023-04-02T16:09:52.948Z,9.42
2023-04-02T16:12:51.031Z,9.40
2023-04-02T16:15:51.815Z,9.30
2023-04-02T16:18:51.431Z,9.20
2023-04-02T16:21:50.952Z,9.12
2023-04-02T16:24:48.857Z,9.10
2023-04-02T16:27:47.631Z,9.00
2023-04-02T16:30:46.245Z,8.94
2023-04-02T16:33:44.908Z,8.90
2023-04-02T16:36:43.513Z,8.90
2023-04-02T16:39:41.686Z,8.90
2023-04-02T16:42:44.206Z,8.90
2023-04-02T16:45:43.305Z,8.80
2023-04-02T16:48:44.582Z,8.72
2023-04-02T16:51:44.096Z,8.60
2023-04-02T16:54:42.021Z,8.50
2023-04-02T16:57:40.668Z,8.50
2023-04-02T17:00:39.381Z,8.40
2023-04-02T17:03:41.720Z,8.40
2023-04-02T17:06:41.987Z,8.36
2023-04-02T17:09:41.359Z,8.30
2023-04-02T17:12:40.355Z,8.30
2023-04-02T17:15:39.861Z,8.30
2023-04-02T17:18:39.491Z,8.20
2023-04-02T17:21:39.188Z,8.10
2023-04-02T17:24:38.645Z,8.00
2023-04-02T17:27:37.383Z,7.90
2023-04-02T17:30:35.657Z,7.86
2023-04-02T17:33:34.757Z,7.80
2023-04-02T17:36:43.018Z,7.72
2023-04-02T17:39:46.032Z,7.60
2023-04-02T17:42:45.269Z,7.50
2023-04-02T17:45:47.545Z,7.40
2023-04-02T17:48:46.846Z,7.40
2023-04-02T17:51:46.549Z,7.30
2023-04-02T17:54:45.652Z,7.20
2023-04-02T17:57:44.943Z,7.20
2023-04-02T18:00:47.768Z,7.10
2023-04-02T18:03:51.092Z,7.10
2023-04-02T18:06:50.809Z,7.00
2023-04-02T18:09:49.280Z,6.90
2023-04-02T18:12:48.521Z,6.90
2023-04-02T18:15:48.502Z,6.90
2023-04-02T18:18:46.630Z,6.82
2023-04-02T18:21:47.609Z,6.80
2023-04-02T18:24:49.646Z,6.76
2023-04-02T18:27:47.908Z,6.70
2023-04-02T18:30:46.764Z,6.70
2023-04-02T18:33:47.417Z,6.68
2023-04-02T18:36:46.378Z,6.60
2023-04-02T18:39:46.178Z,6.60
2023-04-02T18:42:48.886Z,6.60
2023-04-02T18:45:49.332Z,6.50
2023-04-02T18:48:50.078Z,6.50
2023-04-02T18:51:48.652Z,6.50
2023-04-02T18:54:47.329Z,6.40
2023-04-02T18:57:47.328Z,6.40
2023-04-02T19:00:48.883Z,6.40
2023-04-02T19:03:50.506Z,6.36
2023-04-02T19:06:54.648Z,6.30
2023-04-02T19:09:53.729Z,6.30
2023-04-02T19:12:53.647Z,6.20
2023-04-02T19:15:58.335Z,6.20
2023-04-02T19:18:58.229Z,6.16
2023-04-02T19:21:59.851Z,6.10
2023-04-02T19:24:59.274Z,6.10
2023-04-02T19:27:59.138Z,6.10
2023-04-02T19:30:59.295Z,6.00
2023-04-02T19:33:59.292Z,6.00
2023-04-02T19:37:05.204Z,6.00
2023-04-02T19:40:10.554Z,5.90
2023-04-02T19:43:09.728Z,5.90
2023-04-02T19:46:08.822Z,5.90
2023-04-02T19:49:08.002Z,5.82
2023-04-02T19:52:08.193Z,5.80
2023-04-02T19:55:15.044Z,5.80
2023-04-02T19:58:19.721Z,5.80
2023-04-02T20:01:18.453Z,5.80
2023-04-02T20:04:17.823Z,5.78
2023-04-02T20:07:17.046Z,5.72
2023-04-02T20:10:17.477Z,5.70
2023-04-02T20:13:22.525Z,5.70
2023-04-02T20:16:22.306Z,5.70
2023-04-02T20:19:21.530Z,5.70
2023-04-02T20:22:19.973Z,5.66
2023-04-02T20:25:18.314Z,5.60
2023-04-02T20:28:16.781Z,5.60
2023-04-02T20:31:17.398Z,5.60
2023-04-02T20:34:15.992Z,5.60
2023-04-02T20:37:14.530Z,5.60
2023-04-02T20:40:13.517Z,5.70
2023-04-02T20:43:13.382Z,5.70
2023-04-02T20:46:12.438Z,5.68
2023-04-02T20:49:10.703Z,5.66
2023-04-02T20:52:08.470Z,5.62
2023-04-02T20:55:06.093Z,5.64
2023-04-02T20:58:03.864Z,5.62
2023-04-02T21:01:01.612Z,5.62
2023-04-02T21:03:59.169Z,5.60
2023-04-02T21:06:58.020Z,5.60
2023-04-02T21:09:55.615Z,5.60
2023-04-02T21:12:53.942Z,5.60
2023-04-02T21:15:51.591Z,5.60
2023-04-02T21:18:49.341Z,5.60
2023-04-02T21:21:47.134Z,5.52
2023-04-02T21:24:44.579Z,5.50
2023-04-02T21:27:42.236Z,5.50
2023-04-02T21:30:39.688Z,5.50
2023-04-02T21:33:37.482Z,5.50
2023-04-02T21:36:34.968Z,5.50
2023-04-02T21:39:33.946Z,5.50
2023-04-02T21:42:32.210Z,5.50
2023-04-02T21:45:29.705Z,5.50
2023-04-02T21:48:27.545Z,5.50
2023-04-02T21:51:24.991Z,5.50
2023-04-02T21:54:22.671Z,5.48
2023-04-02T21:57:20.129Z,5.40
2023-04-02T22:00:19.557Z,5.40
2023-04-02T22:03:25.115Z,5.40
2023-04-02T22:06:29.113Z,5.40
2023-04-02T22:09:26.768Z,5.40
2023-04-02T22:12:24.340Z,5.40
2023-04-02T22:15:22.085Z,5.40
2023-04-02T22:18:19.563Z,5.40
2023-04-02T22:21:17.340Z,5.40
2023-04-02T22:24:14.991Z,5.40
2023-04-02T22:27:12.920Z,5.40
2023-04-02T22:30:10.815Z,5.40
2023-04-02T22:33:08.306Z,5.40
2023-04-02T22:36:06.242Z,5.40
2023-04-02T22:39:05.617Z,5.40
2023-04-02T22:42:03.621Z,5.40
2023-04-02T22:45:04.501Z,5.40
2023-04-02T22:48:02.009Z,5.40
2023-04-02T22:50:59.781Z,5.40
2023-04-02T22:53:57.291Z,5.40
2023-04-02T22:56:55.738Z,5.40
2023-04-02T22:59:53.509Z,5.40
2023-04-02T23:02:50.986Z,5.40
2023-04-02T23:05:48.744Z,5.40
2023-04-02T23:08:46.184Z,5.40
2023-04-02T23:11:43.877Z,5.40
2023-04-02T23:14:41.338Z,5.40
2023-04-02T23:17:39.141Z,5.40
2023-04-02T23:20:37.171Z,5.40
2023-04-02T23:23:35.258Z,5.34
2023-04-02T23:26:33.244Z,5.30
2023-04-02T23:29:30.930Z,5.30
2023-04-02T23:32:28.662Z,5.30
2023-04-02T23:35:26.452Z,5.30
2023-04-02T23:38:24.126Z,5.30
2023-04-02T23:41:21.609Z,5.30
2023-04-02T23:44:19.306Z,5.30
2023-04-02T23:47:17.089Z,5.30
2023-04-02T23:50:14.539Z,5.30
2023-04-02T23:53:12.319Z,5.30
2023-04-02T23:56:09.932Z,5.30
2023-04-02T23:59:07.704Z,5.30
